KTUSKSDL

Guest
Details From KTUS - Tucson Intl
To KSDL - SCOTTSDALE
Flight Number -
Tags decoded
Created
Modified
Stats Distance 107 nm / 199 km
Max Altitude 0 ft / 0 m
Waypoints 7
Social Downloads 1
Likes 0
Share VATSIM

Download

Looking for another format? Having issues loading an existing format? Contact us
Advertisement - Login to hide

Notes

Requested: KTUS PIMMA PICLI TOTEC RIYCO PXR KSDL

Route

KTUS PIMMA PICLI TOTEC RIYCO PXR KSDL

ID Type Via Altitude Latitude Longitude Leg Dist Tot Dist Heading (true) Name
O KTUS APT - 0 ft / 0 m 32.11686˚ -110.94215˚ - 0 nm - Tucson Intl
PIMMA FIX - 0 ft / 0 m 32.35106˚ -111.16747˚ 18 nm 18 nm 321° / 321° -
PICLI FIX - 0 ft / 0 m 32.66322˚ -111.47833˚ 24 nm 42 nm 320° / 320° -
TOTEC FIX - 0 ft / 0 m 32.82662˚ -111.64220˚ 12 nm 55 nm 320° / 320° -
RIYCO FIX - 0 ft / 0 m 33.03447˚ -111.75408˚ 13 nm 69 nm 336° / 336° -
PXR VOR - 0 ft / 0 m 33.43303˚ -111.97019˚ 26 nm 95 nm 336° / 336° PHOENIX VORTAC
O KSDL APT - 0 ft / 0 m 33.62288˚ -111.91053˚ 11 nm 107 nm 15° / 15° SCOTTSDALE

Altitude Profile

Advertisement - Login to hide

KTUS

Details ICAO KTUS (TUS)
Name Tucson Intl
Region United States
Timezone America/Phoenix (UTC-7.0)
Stats Elevation 2,643 ft / 806 m (AMSL)
Location 32.116858° -110.942155°
Runways 3
Magnetic Variation 9.749° E

METAR

KTUS 211753Z 23008G18KT 10SM CLR 31/M16 A2985 RMK AO2 SLP058 T03111156 10317 20178 58010

Decode

TAF

TAF KTUS 211725Z 2118/2218 19012G20KT P6SM FEW250 FM212000 22018G28KT P6SM SCT250 FM220300 22011KT P6SM FEW250 FM220700 14007KT P6SM SKC FM221600 20014G22KT P6SM SKC

Decode

Departure Runways

ID Width Length Bearing (true) Bearing (mag) Surface Threshold Offset Overrun Length
03 150 ft / 46 m 7,004 ft / 2,135 m 44.90° 35.15° Asphalt 841 ft / 256 m 0 ft / 0 m
11L 150 ft / 46 m 11,000 ft / 3,353 m 135.16° 125.41° Asphalt 0 ft / 0 m 3,257 ft / 993 m
11R 75 ft / 23 m 8,412 ft / 2,564 m 135.16° 125.41° Asphalt 1,410 ft / 430 m 0 ft / 0 m
21 150 ft / 46 m 7,004 ft / 2,135 m 224.91° 215.16° Asphalt 0 ft / 0 m 0 ft / 0 m
29L 75 ft / 23 m 8,412 ft / 2,564 m 315.17° 305.42° Asphalt 0 ft / 0 m 0 ft / 0 m
29R 150 ft / 46 m 11,000 ft / 3,353 m 315.17° 305.42° Asphalt 0 ft / 0 m 1,000 ft / 305 m

KSDL

Details ICAO KSDL (ZSY)
Name SCOTTSDALE
Region United States
Timezone America/Phoenix (UTC-7.0)
Stats Elevation 1,510 ft / 460 m (AMSL)
Location 33.622881° -111.910535°
Runways 1
Magnetic Variation 10.273° E

METAR

KSDL 211753Z 19005KT 10SM CLR 30/04 A2979 RMK AO2 SLP061 T03000039 10300 20206 58005

Decode

TAF

KSDL 211725Z 2118/2218 19008KT P6SM SCT200 FM212100 23011G19KT P6SM BKN200 FM220300 25007KT P6SM SCT200 FM220600 VRB03KT P6SM SCT200

Decode

Destination Runways

ID Width Length Bearing (true) Bearing (mag) Surface Threshold Offset Overrun Length
03 100 ft / 30 m 8,253 ft / 2,516 m 43.82° 33.55° Asphalt 740 ft / 226 m 0 ft / 0 m
21 100 ft / 30 m 8,253 ft / 2,516 m 223.83° 213.56° Asphalt 400 ft / 122 m 0 ft / 0 m

Popular Alternatives